EGNC/CAX METAR and TAF weather

Enter ICAO airport designator
Station Type Date Time Source
EGNC METAR 2019/10/18 05:50 UTC NOAA

EGNC 180550Z 06005KT 8000 RA BKN020 07/07 Q0994


Station Type Date Time Source
EGNC Decoded METAR 2019/10/18 05:50 UTC NOAA

Carlisle, United Kingdom (EGNC) 54-56N 002-57W
Oct 18, 2019 - 01:50 AM EDT / 2019.10.18 0550 UTC
Wind: from the ENE (060 degrees) at 6 MPH (5 KT):0
Visibility: 4 mile(s):0
Sky conditions: mostly cloudy
Weather: rain
Temperature: 44 F (7 C)
Dew Point: 44 F (7 C)
Relative Humidity: 100%
Pressure (altimeter): 29.35 in. Hg (0994 hPa)
ob: EGNC 180550Z 06005KT 8000 RA BKN020 07/07 Q0994
cycle: 6

Station Type Date Time Source
EGNC TAF UTC NOAA

Error!

Example: see airport list